createdAt,value
2023-01-06T00:00:05.351Z,9.661413
2023-01-06T00:01:04.375Z,9.661486
2023-01-06T00:02:04.408Z,9.661354
2023-01-06T00:03:04.325Z,9.661352
2023-01-06T00:04:04.339Z,9.661201
2023-01-06T00:05:04.286Z,9.661295
2023-01-06T00:06:04.303Z,9.661484
2023-01-06T00:07:04.323Z,9.661558
2023-01-06T00:08:04.327Z,9.661577
2023-01-06T00:09:04.346Z,9.661366
2023-01-06T00:10:04.306Z,9.661456
2023-01-06T00:11:04.338Z,9.661341
2023-01-06T00:12:04.380Z,9.661517
2023-01-06T00:13:04.224Z,9.661550
2023-01-06T00:14:04.282Z,9.661479
2023-01-06T00:15:04.285Z,9.661422
2023-01-06T00:16:04.306Z,9.661498
2023-01-06T00:17:04.281Z,9.661656
2023-01-06T00:18:04.296Z,9.661412
2023-01-06T00:19:04.262Z,9.661467
2023-01-06T00:20:04.277Z,9.661457
2023-01-06T00:21:04.233Z,9.661506
2023-01-06T00:22:04.222Z,9.661428
2023-01-06T00:23:04.245Z,9.661506
2023-01-06T00:24:04.192Z,9.661531
2023-01-06T00:25:04.189Z,9.661567
2023-01-06T00:26:04.184Z,9.661486
2023-01-06T00:27:04.260Z,9.661519
2023-01-06T00:28:04.212Z,9.661548
2023-01-06T00:29:04.174Z,9.661654
2023-01-06T00:30:04.139Z,9.661673
2023-01-06T00:31:04.233Z,9.661488
2023-01-06T00:32:04.190Z,9.661582
2023-01-06T00:33:04.135Z,9.661705
2023-01-06T00:34:04.280Z,9.661501
2023-01-06T00:35:04.121Z,9.661232
2023-01-06T00:36:04.118Z,9.661287
2023-01-06T00:37:04.159Z,9.661502
2023-01-06T00:38:04.087Z,9.661575
2023-01-06T00:39:04.087Z,9.661678
2023-01-06T00:40:04.141Z,9.661622
2023-01-06T00:41:04.115Z,9.661427
2023-01-06T00:42:04.135Z,9.661502
2023-01-06T00:43:04.170Z,9.661707
2023-01-06T00:44:04.060Z,9.661651
2023-01-06T00:45:04.284Z,9.661456
2023-01-06T00:46:04.153Z,9.661471
2023-01-06T00:47:04.025Z,9.661646
2023-01-06T00:48:04.080Z,9.661890
2023-01-06T00:49:05.600Z,9.661407
2023-01-06T00:50:05.082Z,9.661543
2023-01-06T00:51:04.067Z,9.661625
2023-01-06T00:52:04.040Z,9.661609
2023-01-06T00:53:04.016Z,9.661745
2023-01-06T00:54:03.996Z,9.661611
2023-01-06T00:55:04.012Z,9.661756
2023-01-06T00:56:04.123Z,9.661691
2023-01-06T00:57:04.013Z,9.661797
2023-01-06T00:58:03.973Z,9.661635
2023-01-06T00:59:04.083Z,9.661670
2023-01-06T01:00:03.964Z,9.661598
2023-01-06T01:01:04.343Z,9.661654
2023-01-06T01:02:04.076Z,9.661653
2023-01-06T01:03:04.027Z,9.661683
2023-01-06T01:04:03.936Z,9.661506
2023-01-06T01:05:03.921Z,9.661564
2023-01-06T01:06:03.922Z,9.661337
2023-01-06T01:07:03.948Z,9.661471
2023-01-06T01:08:03.900Z,9.661641
2023-01-06T01:09:03.917Z,9.661684
2023-01-06T01:10:03.886Z,9.661350
2023-01-06T01:11:04.193Z,9.661575
2023-01-06T01:12:03.922Z,9.661534
2023-01-06T01:13:03.889Z,9.661601
2023-01-06T01:14:03.887Z,9.661536
2023-01-06T01:15:03.984Z,9.661655
2023-01-06T01:16:03.948Z,9.661647
2023-01-06T01:17:03.851Z,9.661884
2023-01-06T01:18:03.901Z,9.661629
2023-01-06T01:19:03.853Z,9.661618
2023-01-06T01:20:03.874Z,9.661685
2023-01-06T01:21:03.809Z,9.661640
2023-01-06T01:22:03.875Z,9.661747
2023-01-06T01:23:03.828Z,9.661821
2023-01-06T01:24:03.808Z,9.661804
2023-01-06T01:25:03.814Z,9.661671
2023-01-06T01:26:03.785Z,9.661643
2023-01-06T01:27:03.841Z,9.661700
2023-01-06T01:28:03.803Z,9.661684
2023-01-06T01:29:03.848Z,9.661773
2023-01-06T01:30:03.800Z,9.661498
2023-01-06T01:31:03.932Z,9.661500
2023-01-06T01:32:03.765Z,9.661572
2023-01-06T01:33:03.776Z,9.661665
2023-01-06T01:34:03.838Z,9.661710
2023-01-06T01:35:04.767Z,9.661466
2023-01-06T01:36:03.764Z,9.661307
2023-01-06T01:37:03.765Z,9.661543
2023-01-06T01:38:03.775Z,9.661616
2023-01-06T01:39:03.757Z,9.661688
2023-01-06T01:40:03.838Z,9.661743
2023-01-06T01:41:03.719Z,9.661776
2023-01-06T01:42:03.750Z,9.661877
2023-01-06T01:43:03.702Z,9.661817
2023-01-06T01:44:03.675Z,9.661759
2023-01-06T01:45:03.839Z,9.661716
2023-01-06T01:46:03.737Z,9.661896
2023-01-06T01:47:03.776Z,9.661803
2023-01-06T01:48:03.709Z,9.661851
2023-01-06T01:49:03.666Z,9.661846
2023-01-06T01:50:03.670Z,9.661806
2023-01-06T01:51:03.692Z,9.661607
2023-01-06T01:52:03.651Z,9.661551
2023-01-06T01:53:03.652Z,9.661519
2023-01-06T01:54:03.645Z,9.661599
2023-01-06T01:55:03.678Z,9.661722
2023-01-06T01:56:03.683Z,9.661725
2023-01-06T01:57:03.672Z,9.661742
2023-01-06T01:58:03.638Z,9.661697
2023-01-06T01:59:03.632Z,9.661613
2023-01-06T02:00:03.619Z,9.661627
2023-01-06T02:01:03.590Z,9.661543
2023-01-06T02:02:03.710Z,9.661555
2023-01-06T02:03:03.691Z,9.661736
2023-01-06T02:04:03.579Z,9.661567
2023-01-06T02:05:03.596Z,9.661492
2023-01-06T02:06:03.557Z,9.661564
2023-01-06T02:07:03.648Z,9.661709
2023-01-06T02:08:03.548Z,9.661670
2023-01-06T02:09:03.609Z,9.661487
2023-01-06T02:10:03.569Z,9.661419
2023-01-06T02:11:03.541Z,9.661571
2023-01-06T02:12:03.550Z,9.661620
2023-01-06T02:13:03.564Z,9.661639
2023-01-06T02:14:03.535Z,9.661693
2023-01-06T02:15:03.524Z,9.661743
2023-01-06T02:16:03.562Z,9.661607
2023-01-06T02:17:03.553Z,9.661605
2023-01-06T02:18:03.573Z,9.661605
2023-01-06T02:19:03.594Z,9.661485
2023-01-06T02:20:03.525Z,9.661632
2023-01-06T02:21:03.528Z,9.661739
2023-01-06T02:22:03.456Z,9.661614
2023-01-06T02:23:03.498Z,9.661779
2023-01-06T02:24:03.601Z,9.661578
2023-01-06T02:25:03.461Z,9.661278
2023-01-06T02:26:03.482Z,9.661586
2023-01-06T02:27:03.467Z,9.661690
2023-01-06T02:28:03.458Z,9.661643
2023-01-06T02:29:03.610Z,9.661387
2023-01-06T02:30:03.458Z,9.661458
2023-01-06T02:31:03.493Z,9.661594
2023-01-06T02:32:03.431Z,9.661673
2023-01-06T02:33:03.406Z,9.661875
2023-01-06T02:34:03.432Z,9.661856
2023-01-06T02:35:03.525Z,9.661658
2023-01-06T02:36:03.491Z,9.661542
2023-01-06T02:37:03.426Z,9.661300
2023-01-06T02:38:03.387Z,9.661369
2023-01-06T02:39:03.454Z,9.661453
2023-01-06T02:40:03.491Z,9.661772
2023-01-06T02:41:03.370Z,9.662018
2023-01-06T02:42:03.354Z,9.661569
2023-01-06T02:43:03.378Z,9.661792
2023-01-06T02:44:03.342Z,9.661665
2023-01-06T02:45:03.365Z,9.661634
2023-01-06T02:46:03.435Z,9.661925
2023-01-06T02:47:03.351Z,9.661839
2023-01-06T02:48:03.345Z,9.661758
2023-01-06T02:49:03.340Z,9.661672
2023-01-06T02:50:03.320Z,9.661786
2023-01-06T02:51:03.430Z,9.661767
2023-01-06T02:52:03.301Z,9.661448
2023-01-06T02:53:03.272Z,9.661421
2023-01-06T02:54:03.308Z,9.661716
2023-01-06T02:55:03.331Z,9.661723
2023-01-06T02:56:03.320Z,9.661470
2023-01-06T02:57:03.322Z,9.661582
2023-01-06T02:58:03.330Z,9.661520
2023-01-06T02:59:03.279Z,9.661572
2023-01-06T03:00:03.297Z,9.661607
2023-01-06T03:01:03.245Z,9.661485
2023-01-06T03:02:03.520Z,9.661555
2023-01-06T03:03:03.276Z,9.661510
2023-01-06T03:04:03.264Z,9.661609
2023-01-06T03:05:03.278Z,9.661571
2023-01-06T03:06:03.262Z,9.661549
2023-01-06T03:07:03.330Z,9.661463
2023-01-06T03:08:03.333Z,9.661468
2023-01-06T03:09:03.202Z,9.661527
2023-01-06T03:10:03.192Z,9.661567
2023-01-06T03:11:03.256Z,9.661511
2023-01-06T03:12:03.198Z,9.661542
2023-01-06T03:13:03.224Z,9.661546
2023-01-06T03:14:03.152Z,9.661587
2023-01-06T03:15:03.222Z,9.661605
2023-01-06T03:16:03.226Z,9.661539
2023-01-06T03:17:03.153Z,9.661492
2023-01-06T03:18:03.127Z,9.661572
2023-01-06T03:19:03.172Z,9.661527
2023-01-06T03:20:03.159Z,9.661490
2023-01-06T03:21:03.183Z,9.661525
2023-01-06T03:22:03.127Z,9.661443
2023-01-06T03:23:03.220Z,9.661599
2023-01-06T03:24:03.138Z,9.661610
2023-01-06T03:25:03.114Z,9.661620
2023-01-06T03:26:03.088Z,9.661598
2023-01-06T03:27:03.130Z,9.661541
2023-01-06T03:28:03.134Z,9.661629
2023-01-06T03:29:03.153Z,9.661602
2023-01-06T03:30:03.188Z,9.661400
2023-01-06T03:31:03.130Z,9.661415
2023-01-06T03:32:03.129Z,9.661568
2023-01-06T03:33:03.099Z,9.661688
2023-01-06T03:34:03.076Z,9.661475
2023-01-06T03:35:03.159Z,9.661510
2023-01-06T03:36:03.046Z,9.661536
2023-01-06T03:37:03.096Z,9.661551
2023-01-06T03:38:03.054Z,9.661449
2023-01-06T03:39:03.150Z,9.661559
2023-01-06T03:40:03.042Z,9.661672
2023-01-06T03:41:03.134Z,9.661585
2023-01-06T03:42:03.038Z,9.661613
2023-01-06T03:43:03.018Z,9.661673
2023-01-06T03:44:03.057Z,9.661608
2023-01-06T03:45:03.003Z,9.661438
2023-01-06T03:46:03.040Z,9.661448
2023-01-06T03:47:02.965Z,9.661654
2023-01-06T03:48:03.034Z,9.661766
2023-01-06T03:49:03.010Z,9.661657
2023-01-06T03:50:02.966Z,9.661656
2023-01-06T03:51:03.000Z,9.661589
2023-01-06T03:52:03.075Z,9.661618
2023-01-06T03:53:02.946Z,9.661575
2023-01-06T03:54:02.967Z,9.661608
2023-01-06T03:55:03.014Z,9.661537
2023-01-06T03:56:02.939Z,9.661598
2023-01-06T03:57:02.955Z,9.661560
2023-01-06T03:58:02.894Z,9.661552
2023-01-06T03:59:02.939Z,9.661607
2023-01-06T04:00:02.904Z,9.661532
2023-01-06T04:01:02.939Z,9.661514
2023-01-06T04:02:02.902Z,9.661414
2023-01-06T04:03:02.969Z,9.661383
2023-01-06T04:04:02.960Z,9.661480
2023-01-06T04:05:02.871Z,9.661630
2023-01-06T04:06:02.853Z,9.661572
2023-01-06T04:07:02.868Z,9.661608
2023-01-06T04:08:02.981Z,9.661527
2023-01-06T04:09:02.845Z,9.661524
2023-01-06T04:10:02.874Z,9.661537
2023-01-06T04:11:02.975Z,9.661608
2023-01-06T04:12:02.862Z,9.661593
2023-01-06T04:13:02.854Z,9.661530
2023-01-06T04:14:02.862Z,9.661476
2023-01-06T04:15:02.822Z,9.661483
2023-01-06T04:16:02.888Z,9.661564
2023-01-06T04:17:02.855Z,9.661575
2023-01-06T04:18:02.803Z,9.661615
2023-01-06T04:19:02.872Z,9.661697
2023-01-06T04:20:02.824Z,9.661734
2023-01-06T04:21:02.776Z,9.661790
2023-01-06T04:22:02.820Z,9.661695
2023-01-06T04:23:02.771Z,9.661672
2023-01-06T04:24:02.802Z,9.661632
2023-01-06T04:25:02.923Z,9.661813
2023-01-06T04:26:02.744Z,9.661798
2023-01-06T04:27:02.864Z,9.661577
2023-01-06T04:28:02.739Z,9.661551
2023-01-06T04:29:02.800Z,9.661703
2023-01-06T04:30:02.834Z,9.661844
2023-01-06T04:31:03.763Z,9.662054
2023-01-06T04:32:02.749Z,9.662018
2023-01-06T04:33:02.743Z,9.661745
2023-01-06T04:34:02.709Z,9.661667
2023-01-06T04:35:02.742Z,9.661745
2023-01-06T04:36:02.842Z,9.661746
2023-01-06T04:37:02.672Z,9.661713
2023-01-06T04:38:02.725Z,9.661608
2023-01-06T04:39:02.670Z,9.661641
2023-01-06T04:40:02.679Z,9.661642
2023-01-06T04:41:02.787Z,9.661528
2023-01-06T04:42:02.660Z,9.661594
2023-01-06T04:43:02.761Z,9.661608
2023-01-06T04:44:02.660Z,9.661653
2023-01-06T04:45:02.671Z,9.661566
2023-01-06T04:46:02.674Z,9.661463
2023-01-06T04:47:02.647Z,9.661623
2023-01-06T04:48:02.645Z,9.661724
2023-01-06T04:49:02.584Z,9.661688
2023-01-06T04:50:02.609Z,9.661608
2023-01-06T04:51:02.605Z,9.661597
2023-01-06T04:52:02.657Z,9.661688
2023-01-06T04:53:02.619Z,9.661698
2023-01-06T04:54:02.591Z,9.661553
2023-01-06T04:55:02.577Z,9.661520
2023-01-06T04:56:02.597Z,9.661486
2023-01-06T04:57:02.603Z,9.661410
2023-01-06T04:58:02.606Z,9.661506
2023-01-06T04:59:02.566Z,9.661802
2023-01-06T05:00:02.569Z,9.661565
2023-01-06T05:01:02.605Z,9.661795
2023-01-06T05:02:02.603Z,9.661492
2023-01-06T05:03:02.649Z,9.661582
2023-01-06T05:04:02.559Z,9.661558
2023-01-06T05:05:02.542Z,9.661557
2023-01-06T05:06:02.518Z,9.661459
2023-01-06T05:07:02.556Z,9.661506
2023-01-06T05:08:02.559Z,9.661547
2023-01-06T05:09:02.600Z,9.661662
2023-01-06T05:10:02.493Z,9.661648
2023-01-06T05:11:02.481Z,9.661638
2023-01-06T05:12:02.503Z,9.661618
2023-01-06T05:13:02.491Z,9.661581
2023-01-06T05:14:02.501Z,9.661605
2023-01-06T05:15:02.574Z,9.661625
2023-01-06T05:16:02.488Z,9.661639
2023-01-06T05:17:02.484Z,9.662052
2023-01-06T05:18:02.447Z,9.662169
2023-01-06T05:19:02.448Z,9.662190
2023-01-06T05:20:02.446Z,9.661971
2023-01-06T05:21:02.444Z,9.661719
2023-01-06T05:22:02.464Z,9.661572
2023-01-06T05:23:02.388Z,9.661611
2023-01-06T05:24:02.454Z,9.662145
2023-01-06T05:25:03.465Z,9.662209
2023-01-06T05:26:02.415Z,9.662197
2023-01-06T05:27:02.397Z,9.662097
2023-01-06T05:28:02.401Z,9.661929
2023-01-06T05:29:02.409Z,9.661788
2023-01-06T05:30:02.434Z,9.661552
2023-01-06T05:31:02.458Z,9.661531
2023-01-06T05:32:02.394Z,9.661641
2023-01-06T05:33:02.376Z,9.661885
2023-01-06T05:34:02.354Z,9.661695
2023-01-06T05:35:02.343Z,9.661585
2023-01-06T05:36:02.356Z,9.661475
2023-01-06T05:37:02.362Z,9.661441
2023-01-06T05:38:02.324Z,9.661345
2023-01-06T05:39:02.340Z,9.661432
2023-01-06T05:40:02.338Z,9.661424
2023-01-06T05:41:02.319Z,9.661448
2023-01-06T05:42:02.279Z,9.661520
2023-01-06T05:43:02.327Z,9.661549
2023-01-06T05:44:02.282Z,9.661493
2023-01-06T05:45:02.341Z,9.661469
2023-01-06T05:46:02.380Z,9.661542
2023-01-06T05:47:02.369Z,9.661530
2023-01-06T05:48:02.292Z,9.661500
2023-01-06T05:49:02.283Z,9.661508
2023-01-06T05:50:02.298Z,9.661494
2023-01-06T05:51:02.327Z,9.661439
2023-01-06T05:52:02.270Z,9.661439
2023-01-06T05:53:02.277Z,9.661479
2023-01-06T05:54:02.254Z,9.661440
2023-01-06T05:55:02.249Z,9.661479
2023-01-06T05:56:02.238Z,9.661393
2023-01-06T05:57:02.260Z,9.661461
2023-01-06T05:58:02.232Z,9.661470
2023-01-06T05:59:02.250Z,9.661479
2023-01-06T06:00:02.188Z,9.661446
2023-01-06T06:01:03.134Z,9.661434
2023-01-06T06:02:02.241Z,9.661539
2023-01-06T06:03:02.300Z,9.661525
2023-01-06T06:04:02.244Z,9.661516
2023-01-06T06:05:02.198Z,9.661500
2023-01-06T06:06:02.214Z,9.661494
2023-01-06T06:07:02.140Z,9.661425
2023-01-06T06:08:02.186Z,9.661424
2023-01-06T06:09:02.162Z,9.661519
2023-01-06T06:10:02.202Z,9.661462
2023-01-06T06:11:34.151Z,9.661487
2023-01-06T06:12:02.110Z,9.661461
2023-01-06T06:13:02.132Z,9.661477
2023-01-06T06:14:02.097Z,9.661469
2023-01-06T06:15:02.110Z,9.661491
2023-01-06T06:16:02.129Z,9.661432
2023-01-06T06:17:02.185Z,9.661489
2023-01-06T06:18:02.083Z,9.661585
2023-01-06T06:19:02.198Z,9.661509
2023-01-06T06:20:02.087Z,9.661622
2023-01-06T06:21:02.091Z,9.661525
2023-01-06T06:22:02.057Z,9.661529
2023-01-06T06:23:02.066Z,9.661810
2023-01-06T06:24:02.053Z,9.661761
2023-01-06T06:25:02.051Z,9.662081
2023-01-06T06:26:02.064Z,9.662297
2023-01-06T06:27:02.013Z,9.662251
2023-01-06T06:28:02.118Z,9.662308
2023-01-06T06:29:02.016Z,9.661974
2023-01-06T06:30:01.995Z,9.661805
2023-01-06T06:31:02.022Z,9.662193
2023-01-06T06:32:01.994Z,9.662082
2023-01-06T06:33:02.108Z,9.661948
2023-01-06T06:34:01.999Z,9.661948
2023-01-06T06:35:02.114Z,9.661629
2023-01-06T06:36:02.009Z,9.661848
2023-01-06T06:37:01.982Z,9.661383
2023-01-06T06:38:01.952Z,9.661648
2023-01-06T06:39:02.122Z,9.661562
2023-01-06T06:40:01.979Z,9.661679
2023-01-06T06:41:01.925Z,9.661694
2023-01-06T06:42:01.976Z,9.661529
2023-01-06T06:43:01.947Z,9.661468
2023-01-06T06:44:01.953Z,9.661505
2023-01-06T06:45:01.968Z,9.661630
2023-01-06T06:46:01.997Z,9.661717
2023-01-06T06:47:01.927Z,9.661738
2023-01-06T06:48:01.919Z,9.661775
2023-01-06T06:49:01.955Z,9.661609
2023-01-06T06:50:01.895Z,9.661623
2023-01-06T06:51:01.981Z,9.661973
2023-01-06T06:52:01.889Z,9.661761
2023-01-06T06:53:01.889Z,9.661798
2023-01-06T06:54:01.915Z,9.661848
2023-01-06T06:55:01.974Z,9.661544
2023-01-06T06:56:01.886Z,9.661576
2023-01-06T06:57:01.865Z,9.662085
2023-01-06T06:58:01.861Z,9.661903
2023-01-06T06:59:01.868Z,9.662065
2023-01-06T07:00:01.843Z,9.661534
2023-01-06T07:01:01.885Z,9.661346
2023-01-06T07:02:01.950Z,9.661510
2023-01-06T07:03:01.825Z,9.661594
2023-01-06T07:04:01.824Z,9.661706
2023-01-06T07:05:01.819Z,9.662384
2023-01-06T07:06:01.833Z,9.661816
2023-01-06T07:07:01.904Z,9.661738
2023-01-06T07:08:01.813Z,9.661808
2023-01-06T07:09:01.760Z,9.661864
2023-01-06T07:10:01.811Z,9.662065
2023-01-06T07:11:01.794Z,9.661999
2023-01-06T07:12:01.827Z,9.661637
2023-01-06T07:13:02.954Z,9.661750
2023-01-06T07:14:01.769Z,9.662025
2023-01-06T07:15:01.737Z,9.661686
2023-01-06T07:16:01.861Z,9.661733
2023-01-06T07:17:01.749Z,9.661777
2023-01-06T07:18:01.761Z,9.661787
2023-01-06T07:19:01.735Z,9.661978
2023-01-06T07:20:01.729Z,9.661701
2023-01-06T07:21:01.723Z,9.661734
2023-01-06T07:22:01.729Z,9.661939
2023-01-06T07:23:01.842Z,9.661911
2023-01-06T07:24:01.709Z,9.662128
2023-01-06T07:25:01.678Z,9.662251
2023-01-06T07:26:01.688Z,9.662110
2023-01-06T07:27:01.684Z,9.661817
2023-01-06T07:28:01.801Z,9.662025
2023-01-06T07:29:01.651Z,9.661906
2023-01-06T07:30:01.648Z,9.661726
2023-01-06T07:31:01.734Z,9.661695
2023-01-06T07:32:01.658Z,9.661731
2023-01-06T07:33:01.630Z,9.661891
2023-01-06T07:34:01.744Z,9.661669
2023-01-06T07:35:01.637Z,9.661701
2023-01-06T07:36:01.612Z,9.661714
2023-01-06T07:37:01.598Z,9.661835
2023-01-06T07:38:01.600Z,9.662064
2023-01-06T07:39:02.730Z,9.661835
2023-01-06T07:40:01.603Z,9.661784
2023-01-06T07:41:01.603Z,9.661716
2023-01-06T07:42:01.578Z,9.661776
2023-01-06T07:43:01.587Z,9.661761
2023-01-06T07:44:01.581Z,9.661587
2023-01-06T07:45:01.608Z,9.662394
2023-01-06T07:46:01.569Z,9.661868
2023-01-06T07:47:01.567Z,9.661508
2023-01-06T07:48:01.608Z,9.661396
2023-01-06T07:49:01.550Z,9.661539
2023-01-06T07:50:01.562Z,9.661745
2023-01-06T07:51:01.545Z,9.661638
2023-01-06T07:52:01.529Z,9.661508
2023-01-06T07:53:01.559Z,9.661281
2023-01-06T07:54:01.537Z,9.662073
2023-01-06T07:55:02.615Z,9.662128
2023-01-06T07:56:01.529Z,9.662116
2023-01-06T07:57:01.540Z,9.662063
2023-01-06T07:58:01.464Z,9.662071
2023-01-06T07:59:01.510Z,9.662104
2023-01-06T08:00:01.500Z,9.662221
2023-01-06T08:01:01.495Z,9.662368
2023-01-06T08:02:01.654Z,9.662221
2023-01-06T08:03:01.491Z,9.662448
2023-01-06T08:04:01.463Z,9.662276
2023-01-06T08:05:01.576Z,9.662019
2023-01-06T08:06:01.474Z,9.661887
2023-01-06T08:07:01.453Z,9.661997
2023-01-06T08:08:01.431Z,9.662120
2023-01-06T08:09:01.474Z,9.661982
2023-01-06T08:10:01.433Z,9.661780
2023-01-06T08:11:01.542Z,9.661748
2023-01-06T08:12:01.421Z,9.661836
2023-01-06T08:13:01.405Z,9.661787
2023-01-06T08:14:01.397Z,9.661787
2023-01-06T08:15:01.405Z,9.661787
2023-01-06T08:16:01.401Z,9.661787
2023-01-06T08:17:01.422Z,9.661787
2023-01-06T08:18:01.391Z,9.661787
2023-01-06T08:19:01.409Z,9.661787
2023-01-06T08:20:01.392Z,9.661548
2023-01-06T08:21:01.350Z,9.661471
2023-01-06T08:22:01.370Z,9.661443
2023-01-06T08:23:01.373Z,9.661553
2023-01-06T08:24:01.375Z,9.661534
2023-01-06T08:25:01.368Z,9.661531
2023-01-06T08:26:01.312Z,9.661515
2023-01-06T08:27:01.428Z,9.661484
2023-01-06T08:28:01.358Z,9.661415
2023-01-06T08:29:01.353Z,9.661460
2023-01-06T08:30:01.342Z,9.661453
2023-01-06T08:31:01.338Z,9.661534
2023-01-06T08:32:10.297Z,9.661452
2023-01-06T08:33:02.272Z,9.661366
2023-01-06T08:34:01.278Z,9.661258
2023-01-06T08:35:01.322Z,9.661063
2023-01-06T08:36:01.266Z,9.661056
2023-01-06T08:37:01.271Z,9.661240
2023-01-06T08:38:01.300Z,9.661263
2023-01-06T08:39:01.355Z,9.661121
2023-01-06T08:40:01.273Z,9.660953
2023-01-06T08:41:01.268Z,9.660952
2023-01-06T08:42:01.261Z,9.661291
2023-01-06T08:43:01.303Z,9.661436
2023-01-06T08:44:01.261Z,9.661582
2023-01-06T08:45:01.265Z,9.661629
2023-01-06T08:46:01.322Z,9.661742
2023-01-06T08:47:01.224Z,9.661363
2023-01-06T08:48:01.188Z,9.661370
2023-01-06T08:49:01.240Z,9.661935
2023-01-06T08:50:01.190Z,9.661995
2023-01-06T08:51:01.203Z,9.661983
2023-01-06T08:52:01.188Z,9.661653
2023-01-06T08:53:01.169Z,9.661580
2023-01-06T08:54:01.180Z,9.661451
2023-01-06T08:55:01.149Z,9.661315
2023-01-06T08:56:01.151Z,9.661332
2023-01-06T08:57:01.180Z,9.661467
2023-01-06T08:58:01.161Z,9.661497
2023-01-06T08:59:01.245Z,9.661433
2023-01-06T09:00:01.121Z,9.661385
2023-01-06T09:01:01.118Z,9.661330
2023-01-06T09:02:01.270Z,9.661465
2023-01-06T09:03:01.102Z,9.661373
2023-01-06T09:04:01.141Z,9.661556
2023-01-06T09:05:01.146Z,9.661447
2023-01-06T09:06:01.192Z,9.661304
2023-01-06T09:07:01.092Z,9.661420
2023-01-06T09:08:01.116Z,9.661343
2023-01-06T09:09:01.107Z,9.661381
2023-01-06T09:10:01.066Z,9.661366
2023-01-06T09:11:01.142Z,9.661439
2023-01-06T09:12:01.027Z,9.661378
2023-01-06T09:13:01.027Z,9.661414
2023-01-06T09:14:01.048Z,9.661348
2023-01-06T09:15:01.137Z,9.661506
2023-01-06T09:16:01.063Z,9.661432
